LGR888 GCHI-GCTS
Flight info
| Callsign | LGR888 |
|---|---|
| Flight time | 0h 43m |
| Altitude | 4000 |
| Route | YELBE |
| Aircraft | R66/L-SFG/C |
Departure
| Time | 2026-04-22 09:43 |
|---|---|
| Airport | El Hierro Airport (GCHI) |
Arrival
| Time | 2026-04-22 10:26 |
|---|---|
| Airport | Tenerife Sur Airport (GCTS) |
| Time | Latitude | Longitude | Altitude | Speed | Heading |
|---|---|---|---|---|---|
| 2026-04-22 09:24 | 27.81331 | -17.88527 | 97 ft | 0 kts | 153° |
| 2026-04-22 09:37 | 27.81329 | -17.88503 | 110 ft | 10 kts | 197° |
| 2026-04-22 09:37 | 27.81292 | -17.88506 | 130 ft | 7 kts | 315° |
| 2026-04-22 09:37 | 27.81352 | -17.88576 | 193 ft | 19 kts | 320° |
| 2026-04-22 09:37 | 27.81472 | -17.88647 | 233 ft | 20 kts | 324° |
| 2026-04-22 09:38 | 27.81593 | -17.88699 | 221 ft | 21 kts | 323° |
| 2026-04-22 09:38 | 27.81710 | -17.88762 | 210 ft | 16 kts | 323° |
| 2026-04-22 09:38 | 27.81808 | -17.88826 | 165 ft | 13 kts | 322° |
| 2026-04-22 09:38 | 27.81839 | -17.88896 | 87 ft | 11 kts | 337° |
| 2026-04-22 09:39 | 27.81816 | -17.88967 | 97 ft | 8 kts | 0° |
| 2026-04-22 09:39 | 27.81844 | -17.88998 | 97 ft | 6 kts | 15° |
| 2026-04-22 09:39 | 27.81891 | -17.89035 | 105 ft | 8 kts | 26° |
| 2026-04-22 09:39 | 27.81934 | -17.89052 | 95 ft | 6 kts | 66° |
| 2026-04-22 09:40 | 27.81957 | -17.89039 | 87 ft | 5 kts | 100° |
| 2026-04-22 09:40 | 27.81964 | -17.89023 | 80 ft | 2 kts | 38° |
| 2026-04-22 09:40 | 27.81965 | -17.89020 | 75 ft | 0 kts | 21° |
| 2026-04-22 09:41 | 27.81971 | -17.89022 | 77 ft | 4 kts | 82° |
| 2026-04-22 09:41 | 27.81912 | -17.88944 | 108 ft | 31 kts | 160° |
| 2026-04-22 09:42 | 27.81636 | -17.88796 | 310 ft | 56 kts | 138° |
| 2026-04-22 09:42 | 27.81422 | -17.88720 | 628 ft | 18 kts | 181° |
| 2026-04-22 09:42 | 27.81314 | -17.88787 | 747 ft | 16 kts | 186° |
| 2026-04-22 09:42 | 27.81146 | -17.88774 | 1020 ft | 45 kts | 167° |
| 2026-04-22 09:43 | 27.80722 | -17.88664 | 1334 ft | 70 kts | 148° |
| 2026-04-22 09:43 | 27.80358 | -17.88416 | 1811 ft | 53 kts | 136° |
| 2026-04-22 09:43 | 27.80053 | -17.88036 | 2019 ft | 83 kts | 121° |
| 2026-04-22 09:43 | 27.79505 | -17.87599 | 2145 ft | 102 kts | 142° |
| 2026-04-22 09:44 | 27.78889 | -17.87206 | 2329 ft | 103 kts | 149° |
| 2026-04-22 09:44 | 27.78249 | -17.86827 | 2522 ft | 102 kts | 150° |
| 2026-04-22 09:44 | 27.77623 | -17.86463 | 2716 ft | 102 kts | 150° |
| 2026-04-22 09:44 | 27.76994 | -17.86098 | 2914 ft | 101 kts | 151° |
| 2026-04-22 09:45 | 27.76374 | -17.85733 | 3109 ft | 100 kts | 151° |
| 2026-04-22 09:45 | 27.75759 | -17.85375 | 3306 ft | 98 kts | 151° |
| 2026-04-22 09:45 | 27.75158 | -17.85026 | 3500 ft | 96 kts | 152° |
| 2026-04-22 09:45 | 27.74562 | -17.84677 | 3700 ft | 95 kts | 153° |
| 2026-04-22 09:46 | 27.73972 | -17.84335 | 3898 ft | 95 kts | 153° |
| 2026-04-22 09:46 | 27.73402 | -17.83918 | 3980 ft | 105 kts | 133° |
| 2026-04-22 09:46 | 27.73179 | -17.83122 | 3999 ft | 112 kts | 86° |
| 2026-04-22 09:46 | 27.73348 | -17.82254 | 4007 ft | 115 kts | 74° |
| 2026-04-22 09:47 | 27.73555 | -17.81366 | 4005 ft | 118 kts | 73° |
| 2026-04-22 09:47 | 27.73770 | -17.80468 | 4001 ft | 119 kts | 72° |
| 2026-04-22 09:47 | 27.73987 | -17.79571 | 3998 ft | 119 kts | 72° |
| 2026-04-22 09:47 | 27.74206 | -17.78662 | 3995 ft | 120 kts | 73° |
| 2026-04-22 09:48 | 27.74427 | -17.77753 | 3993 ft | 119 kts | 72° |
| 2026-04-22 09:48 | 27.74644 | -17.76858 | 3993 ft | 119 kts | 73° |
| 2026-04-22 09:48 | 27.74863 | -17.75949 | 3991 ft | 119 kts | 73° |
| 2026-04-22 09:48 | 27.75081 | -17.75048 | 3991 ft | 119 kts | 73° |
| 2026-04-22 09:49 | 27.75301 | -17.74145 | 3989 ft | 120 kts | 73° |
| 2026-04-22 09:49 | 27.75768 | -17.73378 | 3994 ft | 120 kts | 39° |
| 2026-04-22 09:49 | 27.76360 | -17.72720 | 3962 ft | 121 kts | 60° |
| 2026-04-22 09:49 | 27.76450 | -17.71803 | 3971 ft | 118 kts | 98° |
| 2026-04-22 09:50 | 27.76407 | -17.70884 | 3992 ft | 118 kts | 88° |
| 2026-04-22 09:50 | 27.76479 | -17.69950 | 3992 ft | 120 kts | 81° |
| 2026-04-22 09:50 | 27.76617 | -17.69028 | 3993 ft | 120 kts | 77° |
| 2026-04-22 09:50 | 27.76797 | -17.68101 | 3992 ft | 121 kts | 75° |
| 2026-04-22 09:51 | 27.76998 | -17.67169 | 3991 ft | 121 kts | 73° |
| 2026-04-22 09:51 | 27.77206 | -17.66251 | 3989 ft | 120 kts | 73° |
| 2026-04-22 09:51 | 27.77419 | -17.65344 | 3987 ft | 119 kts | 72° |
| 2026-04-22 09:51 | 27.77633 | -17.64439 | 3986 ft | 119 kts | 72° |
| 2026-04-22 09:52 | 27.77855 | -17.63526 | 3989 ft | 121 kts | 73° |
| 2026-04-22 09:52 | 27.78074 | -17.62613 | 3989 ft | 121 kts | 73° |
| 2026-04-22 09:52 | 27.78295 | -17.61690 | 3989 ft | 121 kts | 73° |
| 2026-04-22 09:52 | 27.78515 | -17.60773 | 3989 ft | 121 kts | 74° |
| 2026-04-22 09:53 | 27.78734 | -17.59859 | 3988 ft | 121 kts | 74° |
| 2026-04-22 09:53 | 27.78954 | -17.58929 | 3989 ft | 120 kts | 73° |
| 2026-04-22 09:53 | 27.79174 | -17.58016 | 3990 ft | 120 kts | 73° |
| 2026-04-22 09:53 | 27.79391 | -17.57106 | 3988 ft | 120 kts | 73° |
| 2026-04-22 09:54 | 27.79610 | -17.56199 | 3989 ft | 120 kts | 73° |
| 2026-04-22 09:54 | 27.79827 | -17.55286 | 3997 ft | 119 kts | 73° |
| 2026-04-22 09:54 | 27.80040 | -17.54391 | 4016 ft | 120 kts | 73° |
| 2026-04-22 09:54 | 27.80258 | -17.53481 | 4014 ft | 120 kts | 72° |
| 2026-04-22 09:55 | 27.80479 | -17.52561 | 4017 ft | 121 kts | 72° |
| 2026-04-22 09:55 | 27.80704 | -17.51626 | 3996 ft | 123 kts | 73° |
| 2026-04-22 09:55 | 27.80926 | -17.50704 | 3990 ft | 122 kts | 73° |
| 2026-04-22 09:55 | 27.81147 | -17.49785 | 3990 ft | 121 kts | 74° |
| 2026-04-22 09:56 | 27.81366 | -17.48867 | 3991 ft | 121 kts | 73° |
| 2026-04-22 09:56 | 27.81586 | -17.47944 | 3990 ft | 121 kts | 73° |
| 2026-04-22 09:56 | 27.81804 | -17.47024 | 3989 ft | 121 kts | 74° |
| 2026-04-22 09:56 | 27.82024 | -17.46107 | 3989 ft | 121 kts | 75° |
| 2026-04-22 09:57 | 27.82244 | -17.45183 | 3989 ft | 121 kts | 74° |
| 2026-04-22 09:57 | 27.82462 | -17.44264 | 3989 ft | 121 kts | 74° |
| 2026-04-22 09:57 | 27.82683 | -17.43339 | 3990 ft | 121 kts | 74° |
| 2026-04-22 09:57 | 27.82901 | -17.42419 | 3990 ft | 122 kts | 73° |
| 2026-04-22 09:58 | 27.83122 | -17.41491 | 3990 ft | 122 kts | 73° |
| 2026-04-22 09:58 | 27.83341 | -17.40569 | 3990 ft | 122 kts | 73° |
| 2026-04-22 09:58 | 27.83562 | -17.39639 | 3991 ft | 123 kts | 72° |
| 2026-04-22 09:58 | 27.83918 | -17.38772 | 3985 ft | 123 kts | 60° |
| 2026-04-22 09:59 | 27.84073 | -17.37826 | 3989 ft | 121 kts | 81° |
| 2026-04-22 09:59 | 27.84189 | -17.36878 | 3993 ft | 121 kts | 79° |
| 2026-04-22 09:59 | 27.84333 | -17.35941 | 3993 ft | 122 kts | 79° |
| 2026-04-22 09:59 | 27.84492 | -17.35006 | 3993 ft | 122 kts | 78° |
| 2026-04-22 10:00 | 27.84665 | -17.34063 | 3992 ft | 122 kts | 78° |
| 2026-04-22 10:00 | 27.84836 | -17.33130 | 3993 ft | 122 kts | 77° |
| 2026-04-22 10:00 | 27.85013 | -17.32194 | 3992 ft | 121 kts | 77° |
| 2026-04-22 10:00 | 27.85193 | -17.31252 | 3992 ft | 122 kts | 77° |
| 2026-04-22 10:01 | 27.85370 | -17.30311 | 3992 ft | 122 kts | 77° |
| 2026-04-22 10:01 | 27.85546 | -17.29378 | 3992 ft | 122 kts | 77° |
| 2026-04-22 10:01 | 27.85724 | -17.28435 | 3992 ft | 123 kts | 76° |
| 2026-04-22 10:01 | 27.85903 | -17.27494 | 3993 ft | 122 kts | 76° |
| 2026-04-22 10:02 | 27.86086 | -17.26542 | 3994 ft | 123 kts | 76° |
| 2026-04-22 10:02 | 27.86265 | -17.25600 | 3996 ft | 123 kts | 77° |
| 2026-04-22 10:02 | 27.86424 | -17.24770 | 4402 ft | 76 kts | 83° |
| 2026-04-22 10:02 | 27.86531 | -17.24151 | 4418 ft | 113 kts | 82° |
| 2026-04-22 10:03 | 27.86712 | -17.23134 | 3984 ft | 132 kts | 74° |
| 2026-04-22 10:03 | 27.86905 | -17.22181 | 3995 ft | 118 kts | 75° |
| 2026-04-22 10:03 | 27.87081 | -17.21293 | 3995 ft | 113 kts | 76° |
| 2026-04-22 10:03 | 27.87247 | -17.20437 | 3995 ft | 111 kts | 76° |
| 2026-04-22 10:04 | 27.87410 | -17.19591 | 3996 ft | 110 kts | 77° |
| 2026-04-22 10:04 | 27.87571 | -17.18745 | 3994 ft | 109 kts | 77° |
| 2026-04-22 10:04 | 27.87733 | -17.17898 | 3965 ft | 111 kts | 75° |
| 2026-04-22 10:04 | 27.87896 | -17.17044 | 3893 ft | 110 kts | 75° |
| 2026-04-22 10:05 | 27.88057 | -17.16209 | 3835 ft | 108 kts | 74° |
| 2026-04-22 10:05 | 27.88217 | -17.15377 | 3782 ft | 108 kts | 73° |
| 2026-04-22 10:05 | 27.88375 | -17.14549 | 3727 ft | 107 kts | 73° |
| 2026-04-22 10:05 | 27.88533 | -17.13733 | 3683 ft | 106 kts | 72° |
| 2026-04-22 10:06 | 27.88691 | -17.12918 | 3640 ft | 105 kts | 73° |
| 2026-04-22 10:06 | 27.88846 | -17.12114 | 3596 ft | 105 kts | 74° |
| 2026-04-22 10:06 | 27.89001 | -17.11302 | 3553 ft | 104 kts | 74° |
| 2026-04-22 10:06 | 27.89152 | -17.10509 | 3512 ft | 104 kts | 75° |
| 2026-04-22 10:07 | 27.89307 | -17.09706 | 3472 ft | 104 kts | 74° |
| 2026-04-22 10:07 | 27.89463 | -17.08913 | 3431 ft | 104 kts | 74° |
| 2026-04-22 10:07 | 27.89617 | -17.08115 | 3396 ft | 104 kts | 75° |
| 2026-04-22 10:07 | 27.89768 | -17.07313 | 3360 ft | 104 kts | 75° |
| 2026-04-22 10:08 | 27.89917 | -17.06513 | 3325 ft | 103 kts | 74° |
| 2026-04-22 10:08 | 27.90064 | -17.05726 | 3292 ft | 103 kts | 73° |
| 2026-04-22 10:08 | 27.90213 | -17.04928 | 3256 ft | 103 kts | 73° |
| 2026-04-22 10:08 | 27.90358 | -17.04143 | 3222 ft | 102 kts | 73° |
| 2026-04-22 10:09 | 27.90508 | -17.03350 | 3190 ft | 103 kts | 73° |
| 2026-04-22 10:09 | 27.90657 | -17.02555 | 3158 ft | 103 kts | 74° |
| 2026-04-22 10:09 | 27.90806 | -17.01753 | 3128 ft | 104 kts | 74° |
| 2026-04-22 10:09 | 27.90955 | -17.00957 | 3118 ft | 105 kts | 75° |
| 2026-04-22 10:10 | 27.91068 | -17.00323 | 3490 ft | 78 kts | 80° |
| 2026-04-22 10:10 | 27.91183 | -16.99657 | 3612 ft | 93 kts | 79° |
| 2026-04-22 10:10 | 27.91280 | -16.98904 | 3725 ft | 99 kts | 90° |
| 2026-04-22 10:10 | 27.91419 | -16.98126 | 3817 ft | 104 kts | 76° |
| 2026-04-22 10:11 | 27.91592 | -16.97297 | 3823 ft | 111 kts | 75° |
| 2026-04-22 10:11 | 27.91772 | -16.96408 | 3731 ft | 120 kts | 75° |
| 2026-04-22 10:11 | 27.91958 | -16.95467 | 3587 ft | 123 kts | 75° |
| 2026-04-22 10:11 | 27.92137 | -16.94541 | 3466 ft | 120 kts | 74° |
| 2026-04-22 10:12 | 27.92302 | -16.93660 | 3543 ft | 96 kts | 74° |
| 2026-04-22 10:12 | 27.92437 | -16.92933 | 3526 ft | 103 kts | 73° |
| 2026-04-22 10:12 | 27.92592 | -16.92115 | 3412 ft | 108 kts | 73° |
| 2026-04-22 10:12 | 27.92751 | -16.91272 | 3296 ft | 110 kts | 72° |
| 2026-04-22 10:13 | 27.92910 | -16.90435 | 3186 ft | 109 kts | 72° |
| 2026-04-22 10:13 | 27.93067 | -16.89604 | 3100 ft | 106 kts | 73° |
| 2026-04-22 10:13 | 27.93218 | -16.88792 | 3014 ft | 105 kts | 73° |
| 2026-04-22 10:13 | 27.93372 | -16.87986 | 2935 ft | 104 kts | 73° |
| 2026-04-22 10:14 | 27.93576 | -16.87222 | 2923 ft | 99 kts | 66° |
| 2026-04-22 10:14 | 27.93846 | -16.86511 | 2912 ft | 96 kts | 59° |
| 2026-04-22 10:14 | 27.94172 | -16.85861 | 2900 ft | 95 kts | 53° |
| 2026-04-22 10:14 | 27.94556 | -16.85255 | 2896 ft | 93 kts | 47° |
| 2026-04-22 10:15 | 27.94991 | -16.84706 | 2889 ft | 93 kts | 39° |
| 2026-04-22 10:15 | 27.95464 | -16.84223 | 2883 ft | 91 kts | 34° |
| 2026-04-22 10:15 | 27.95869 | -16.83659 | 2831 ft | 96 kts | 60° |
| 2026-04-22 10:15 | 27.95933 | -16.82901 | 2785 ft | 96 kts | 87° |
| 2026-04-22 10:16 | 27.95933 | -16.82156 | 2784 ft | 93 kts | 80° |
| 2026-04-22 10:16 | 27.96035 | -16.81435 | 2778 ft | 91 kts | 72° |
| 2026-04-22 10:16 | 27.96200 | -16.80746 | 2776 ft | 89 kts | 68° |
| 2026-04-22 10:16 | 27.96401 | -16.80082 | 2773 ft | 89 kts | 66° |
| 2026-04-22 10:17 | 27.96623 | -16.79429 | 2763 ft | 89 kts | 63° |
| 2026-04-22 10:17 | 27.96863 | -16.78773 | 2754 ft | 89 kts | 62° |
| 2026-04-22 10:17 | 27.97106 | -16.78135 | 2741 ft | 88 kts | 62° |
| 2026-04-22 10:17 | 27.97358 | -16.77498 | 2725 ft | 89 kts | 62° |
| 2026-04-22 10:18 | 27.97612 | -16.76857 | 2713 ft | 88 kts | 60° |
| 2026-04-22 10:18 | 27.97851 | -16.76231 | 2692 ft | 86 kts | 63° |
| 2026-04-22 10:18 | 27.98070 | -16.75603 | 2681 ft | 83 kts | 64° |
| 2026-04-22 10:18 | 27.98271 | -16.75002 | 2680 ft | 80 kts | 63° |
| 2026-04-22 10:19 | 27.98472 | -16.74409 | 2671 ft | 80 kts | 63° |
| 2026-04-22 10:19 | 27.98671 | -16.73817 | 2666 ft | 81 kts | 61° |
| 2026-04-22 10:19 | 27.98879 | -16.73220 | 2659 ft | 81 kts | 62° |
| 2026-04-22 10:19 | 27.99088 | -16.72618 | 2644 ft | 82 kts | 62° |
| 2026-04-22 10:20 | 27.99302 | -16.72004 | 2567 ft | 87 kts | 61° |
| 2026-04-22 10:20 | 27.99528 | -16.71370 | 2454 ft | 87 kts | 60° |
| 2026-04-22 10:20 | 27.99751 | -16.70735 | 2345 ft | 85 kts | 60° |
| 2026-04-22 10:20 | 27.99966 | -16.70124 | 2234 ft | 81 kts | 59° |
| 2026-04-22 10:21 | 28.00172 | -16.69541 | 2137 ft | 78 kts | 59° |
| 2026-04-22 10:21 | 28.00369 | -16.68976 | 2042 ft | 76 kts | 59° |
| 2026-04-22 10:21 | 28.00562 | -16.68426 | 1947 ft | 74 kts | 60° |
| 2026-04-22 10:21 | 28.00751 | -16.67886 | 1859 ft | 73 kts | 60° |
| 2026-04-22 10:22 | 28.00938 | -16.67351 | 1754 ft | 71 kts | 59° |
| 2026-04-22 10:22 | 28.01117 | -16.66842 | 1669 ft | 68 kts | 59° |
| 2026-04-22 10:22 | 28.01291 | -16.66346 | 1582 ft | 67 kts | 60° |
| 2026-04-22 10:22 | 28.01460 | -16.65862 | 1493 ft | 66 kts | 61° |
| 2026-04-22 10:23 | 28.01628 | -16.65378 | 1409 ft | 65 kts | 62° |
| 2026-04-22 10:23 | 28.01791 | -16.64905 | 1320 ft | 64 kts | 62° |
| 2026-04-22 10:23 | 28.01954 | -16.64440 | 1240 ft | 63 kts | 61° |
| 2026-04-22 10:23 | 28.02116 | -16.63977 | 1152 ft | 62 kts | 61° |
| 2026-04-22 10:24 | 28.02275 | -16.63520 | 1072 ft | 61 kts | 62° |
| 2026-04-22 10:24 | 28.02432 | -16.63066 | 1009 ft | 63 kts | 65° |
| 2026-04-22 10:24 | 28.02609 | -16.62555 | 923 ft | 74 kts | 65° |
| 2026-04-22 10:24 | 28.02806 | -16.61988 | 823 ft | 79 kts | 63° |
| 2026-04-22 10:25 | 28.03036 | -16.61455 | 803 ft | 74 kts | 62° |
| 2026-04-22 10:25 | 28.03228 | -16.60877 | 678 ft | 78 kts | 66° |
| 2026-04-22 10:25 | 28.03421 | -16.60282 | 554 ft | 81 kts | 64° |
| 2026-04-22 10:25 | 28.03610 | -16.59686 | 440 ft | 79 kts | 63° |
| 2026-04-22 10:26 | 28.03777 | -16.59177 | 363 ft | 59 kts | 62° |
| 2026-04-22 10:26 | 28.03890 | -16.58847 | 287 ft | 31 kts | 67° |
| 2026-04-22 10:26 | 28.03929 | -16.58698 | 226 ft | 10 kts | 69° |
| 2026-04-22 10:26 | 28.03948 | -16.58683 | 225 ft | 6 kts | 60° |
| 2026-04-22 10:27 | 28.03964 | -16.58630 | 233 ft | 11 kts | 62° |
| 2026-04-22 10:27 | 28.04016 | -16.58495 | 246 ft | 28 kts | 57° |
| 2026-04-22 10:27 | 28.04096 | -16.58282 | 244 ft | 24 kts | 62° |
| 2026-04-22 10:27 | 28.04152 | -16.58102 | 250 ft | 25 kts | 67° |
| 2026-04-22 10:28 | 28.04210 | -16.57951 | 247 ft | 17 kts | 72° |
| 2026-04-22 10:28 | 28.04231 | -16.57856 | 225 ft | 6 kts | 43° |
| 2026-04-22 10:28 | 28.04269 | -16.57823 | 225 ft | 6 kts | 336° |
| 2026-04-22 10:28 | 28.04310 | -16.57889 | 231 ft | 14 kts | 269° |
| 2026-04-22 10:29 | 28.04292 | -16.57988 | 237 ft | 10 kts | 289° |
| 2026-04-22 10:29 | 28.04289 | -16.58079 | 229 ft | 8 kts | 339° |
| 2026-04-22 10:29 | 28.04330 | -16.58104 | 233 ft | 11 kts | 59° |
| 2026-04-22 10:29 | 28.04361 | -16.58041 | 236 ft | 12 kts | 63° |
| 2026-04-22 10:30 | 28.04384 | -16.57973 | 236 ft | 10 kts | 66° |
| 2026-04-22 10:30 | 28.04411 | -16.57895 | 252 ft | 12 kts | 65° |
| 2026-04-22 10:30 | 28.04464 | -16.57783 | 281 ft | 19 kts | 45° |
| 2026-04-22 10:30 | 28.04542 | -16.57702 | 265 ft | 12 kts | 48° |
| 2026-04-22 10:31 | 28.04594 | -16.57650 | 236 ft | 5 kts | 45° |
| 2026-04-22 10:31 | 28.04622 | -16.57634 | 232 ft | 3 kts | 71° |
| 2026-04-22 10:31 | 28.04629 | -16.57619 | 227 ft | 6 kts | 131° |
| 2026-04-22 10:31 | 28.04586 | -16.57605 | 229 ft | 3 kts | 98° |
| 2026-04-22 10:32 | 28.04588 | -16.57584 | 225 ft | 1 kts | 360° |
| 2026-04-22 10:32 | 28.04596 | -16.57565 | 223 ft | 1 kts | 336° |
| 2026-04-22 10:32 | 28.04593 | -16.57583 | 223 ft | 5 kts | 315° |
| 2026-04-22 10:32 | 28.04605 | -16.57555 | 234 ft | 1 kts | 253° |
| 2026-04-22 10:33 | 28.04584 | -16.57570 | 230 ft | 4 kts | 292° |
| 2026-04-22 10:33 | 28.04590 | -16.57579 | 221 ft | 2 kts | 327° |
| 2026-04-22 10:33 | 28.04593 | -16.57581 | 220 ft | 0 kts | 331° |